createdAt,value
2023-04-15T00:00:02.432Z,7.58
2023-04-15T00:05:19.107Z,7.77
2023-04-15T00:10:32.772Z,7.64
2023-04-15T00:15:44.803Z,7.80
2023-04-15T00:20:50.797Z,7.73
2023-04-15T00:25:59.649Z,7.64
2023-04-15T00:31:08.251Z,7.66
2023-04-15T00:36:21.091Z,7.66
2023-04-15T00:41:27.676Z,7.69
2023-04-15T00:46:39.127Z,7.49
2023-04-15T00:51:49.584Z,7.71
2023-04-15T00:56:55.922Z,7.65
2023-04-15T01:02:05.448Z,7.48
2023-04-15T01:07:11.597Z,7.70
2023-04-15T01:12:20.931Z,7.61
2023-04-15T01:17:31.821Z,7.71
2023-04-15T01:22:38.829Z,7.50
2023-04-15T01:27:50.585Z,7.42
2023-04-15T01:33:02.586Z,7.60
2023-04-15T01:38:12.052Z,7.45
2023-04-15T01:43:21.827Z,7.39
2023-04-15T01:48:27.897Z,7.35
2023-04-15T01:53:34.478Z,7.46
2023-04-15T01:58:44.141Z,7.44
2023-04-15T02:03:51.507Z,7.38
2023-04-15T02:08:57.322Z,7.32
2023-04-15T02:14:06.270Z,7.52
2023-04-15T02:19:13.656Z,7.56
2023-04-15T02:24:20.297Z,7.51
2023-04-15T02:29:29.366Z,7.59
2023-04-15T02:34:34.968Z,7.75
2023-04-15T02:39:40.918Z,7.78
2023-04-15T02:44:50.419Z,7.66
2023-04-15T02:50:01.111Z,7.78
2023-04-15T02:55:10.895Z,7.81
2023-04-15T03:00:20.990Z,7.66
2023-04-15T03:05:27.923Z,7.58
2023-04-15T03:10:34.017Z,7.70
2023-04-15T03:15:46.193Z,7.52
2023-04-15T03:20:54.599Z,7.49
2023-04-15T03:26:01.615Z,7.49
2023-04-15T03:31:11.892Z,7.52
2023-04-15T03:36:18.177Z,7.61
2023-04-15T03:41:24.570Z,7.95
2023-04-15T03:46:33.906Z,7.96
2023-04-15T03:51:40.016Z,7.71
2023-04-15T03:56:47.506Z,8.08
2023-04-15T04:01:56.162Z,7.70
2023-04-15T04:07:04.362Z,8.07
2023-04-15T04:12:10.092Z,7.83
2023-04-15T04:17:19.819Z,8.06
2023-04-15T04:22:27.122Z,7.98
2023-04-15T04:27:32.486Z,8.01
2023-04-15T04:32:40.823Z,8.15
2023-04-15T04:37:46.354Z,7.83
2023-04-15T04:42:51.997Z,7.97
2023-04-15T04:48:00.292Z,8.01
2023-04-15T04:53:05.772Z,7.81
2023-04-15T04:58:12.280Z,8.22
2023-04-15T05:03:21.207Z,8.31
2023-04-15T05:08:27.058Z,8.44
2023-04-15T05:13:33.479Z,8.32
2023-04-15T05:18:41.524Z,8.50
2023-04-15T05:23:47.394Z,8.38
2023-04-15T05:28:53.198Z,8.38
2023-04-15T05:34:02.045Z,8.44
2023-04-15T05:39:08.295Z,8.40
2023-04-15T05:44:14.004Z,8.46
2023-04-15T05:49:22.468Z,8.55
2023-04-15T05:54:28.446Z,8.52
2023-04-15T05:59:34.197Z,8.52
2023-04-15T06:04:42.924Z,8.33
2023-04-15T06:09:48.959Z,8.48
2023-04-15T06:14:54.509Z,8.27
2023-04-15T06:20:02.660Z,8.41
2023-04-15T06:25:10.544Z,8.49
2023-04-15T06:30:15.846Z,8.64
2023-04-15T06:35:23.931Z,8.56
2023-04-15T06:40:31.270Z,8.70
2023-04-15T06:45:37.307Z,8.80
2023-04-15T06:50:46.046Z,8.96
2023-04-15T06:55:51.727Z,8.68
2023-04-15T07:00:57.644Z,8.53
2023-04-15T07:06:07.647Z,8.60
2023-04-15T07:11:14.847Z,8.76
2023-04-15T07:16:20.568Z,8.79
2023-04-15T07:21:29.108Z,8.81
2023-04-15T07:26:34.923Z,8.80
2023-04-15T07:31:40.575Z,8.98
2023-04-15T07:36:51.767Z,9.07
2023-04-15T07:41:59.405Z,8.84
2023-04-15T07:47:06.610Z,9.13
2023-04-15T07:52:15.036Z,9.07
2023-04-15T07:57:20.770Z,9.10
2023-04-15T08:02:26.780Z,9.13
2023-04-15T08:07:35.274Z,9.21
2023-04-15T08:12:41.035Z,9.16
2023-04-15T08:17:48.220Z,9.37
2023-04-15T08:22:56.741Z,9.38
2023-04-15T08:28:03.834Z,9.20
2023-04-15T08:33:09.292Z,9.13
2023-04-15T08:38:17.980Z,8.16
2023-04-15T08:43:27.190Z,8.16
2023-04-15T08:48:36.179Z,8.03
2023-04-15T08:53:47.642Z,8.02
2023-04-15T08:58:54.721Z,8.24
2023-04-15T09:04:01.119Z,8.09
2023-04-15T09:09:10.542Z,8.12
2023-04-15T09:14:16.046Z,8.46
2023-04-15T09:19:26.198Z,8.55
2023-04-15T09:24:44.113Z,8.41
2023-04-15T09:29:53.928Z,8.30
2023-04-15T09:34:59.427Z,8.29
2023-04-15T09:40:10.876Z,8.17
2023-04-15T09:45:16.751Z,8.17
2023-04-15T09:50:23.420Z,8.24
2023-04-15T09:55:37.673Z,8.30
2023-04-15T10:00:45.453Z,7.98
2023-04-15T10:05:54.123Z,8.15
2023-04-15T10:11:04.593Z,8.18
2023-04-15T10:16:16.654Z,8.42
2023-04-15T10:21:26.814Z,8.54
2023-04-15T10:26:37.241Z,8.61
2023-04-15T10:31:46.037Z,8.75
2023-04-15T10:36:53.746Z,8.97
2023-04-15T10:42:13.463Z,8.97
2023-04-15T10:47:22.405Z,9.39
2023-04-15T10:52:30.308Z,9.83
2023-04-15T10:57:42.974Z,9.86
2023-04-15T11:02:51.197Z,9.64
2023-04-15T11:07:59.122Z,9.02
2023-04-15T11:13:09.535Z,8.80
2023-04-15T11:18:17.027Z,8.94
2023-04-15T11:23:25.769Z,9.03
2023-04-15T11:28:36.824Z,9.09
2023-04-15T11:33:50.442Z,9.16
2023-04-15T11:38:56.689Z,9.25
2023-04-15T11:44:05.918Z,9.58
2023-04-15T11:49:11.482Z,9.52
2023-04-15T11:54:22.681Z,9.55
2023-04-15T11:59:42.522Z,9.66
2023-04-15T12:04:50.519Z,9.41
2023-04-15T12:09:58.839Z,9.18
2023-04-15T12:15:07.560Z,9.70
2023-04-15T12:20:13.602Z,9.86
2023-04-15T12:25:21.311Z,9.78
2023-04-15T12:30:29.575Z,9.49
2023-04-15T12:35:35.453Z,10.06
2023-04-15T12:40:41.091Z,9.80
2023-04-15T12:45:49.552Z,10.71
2023-04-15T12:50:55.437Z,10.82
2023-04-15T12:56:00.853Z,10.82
2023-04-15T13:01:09.295Z,10.54
2023-04-15T13:06:15.455Z,10.62
2023-04-15T13:11:21.160Z,10.34
2023-04-15T13:16:29.694Z,10.38
2023-04-15T13:21:36.958Z,11.05
2023-04-15T13:26:42.604Z,11.11
2023-04-15T13:31:50.731Z,10.40
2023-04-15T13:36:56.196Z,10.46
2023-04-15T13:42:03.338Z,10.29
2023-04-15T13:47:11.988Z,11.33
2023-04-15T13:52:18.942Z,11.37
2023-04-15T13:57:24.360Z,10.16
2023-04-15T14:02:32.857Z,10.65
2023-04-15T14:07:38.775Z,11.61
2023-04-15T14:12:44.621Z,11.48
2023-04-15T14:17:53.161Z,12.09
2023-04-15T14:22:58.883Z,11.23
2023-04-15T14:28:06.757Z,11.43
2023-04-15T14:33:15.951Z,10.77
2023-04-15T14:38:22.907Z,11.72
2023-04-15T14:43:28.470Z,11.35
2023-04-15T14:48:41.343Z,11.45
2023-04-15T14:53:47.080Z,11.49
2023-04-15T14:58:53.611Z,11.32
2023-04-15T15:04:01.768Z,11.43
2023-04-15T15:09:12.832Z,11.55
2023-04-15T15:14:22.072Z,11.81
2023-04-15T15:19:30.743Z,11.09
2023-04-15T15:24:38.852Z,11.38
2023-04-15T15:29:44.674Z,11.83
2023-04-15T15:34:53.794Z,11.37
2023-04-15T15:39:59.742Z,11.77
2023-04-15T15:45:07.435Z,11.51
2023-04-15T15:50:17.069Z,11.67
2023-04-15T15:55:22.817Z,11.42
2023-04-15T16:00:28.754Z,11.47
2023-04-15T16:05:37.591Z,11.44
2023-04-15T16:10:42.997Z,11.56
2023-04-15T16:15:48.358Z,11.56
2023-04-15T16:20:56.389Z,11.47
2023-04-15T16:26:01.973Z,11.32
2023-04-15T16:31:07.704Z,11.30
2023-04-15T16:36:15.766Z,11.30
2023-04-15T16:41:21.470Z,11.28
2023-04-15T16:46:28.440Z,11.17
2023-04-15T16:51:39.349Z,11.29
2023-04-15T16:56:44.963Z,11.29
2023-04-15T17:01:50.689Z,11.21
2023-04-15T17:06:59.184Z,10.91
2023-04-15T17:12:05.036Z,11.08
2023-04-15T17:17:10.732Z,11.15
2023-04-15T17:22:20.010Z,11.15
2023-04-15T17:27:27.897Z,11.28
2023-04-15T17:32:35.157Z,11.21
2023-04-15T17:37:43.917Z,11.04
2023-04-15T17:42:50.212Z,11.15
2023-04-15T17:47:56.730Z,10.82
2023-04-15T17:53:05.040Z,10.92
2023-04-15T17:58:10.575Z,11.29
2023-04-15T18:03:18.079Z,11.26
2023-04-15T18:08:27.436Z,11.08
2023-04-15T18:13:34.737Z,11.04
2023-04-15T18:18:40.115Z,10.83
2023-04-15T18:23:48.499Z,10.76
2023-04-15T18:28:54.661Z,10.66
2023-04-15T18:34:00.461Z,11.10
2023-04-15T18:39:08.816Z,11.12
2023-04-15T18:44:17.047Z,10.74
2023-04-15T18:49:26.277Z,10.76
2023-04-15T18:54:34.709Z,10.59
2023-04-15T18:59:40.326Z,10.31
2023-04-15T19:04:45.975Z,10.31
2023-04-15T19:09:56.087Z,10.37
2023-04-15T19:15:02.082Z,10.61
2023-04-15T19:20:10.113Z,10.44
2023-04-15T19:25:19.220Z,10.17
2023-04-15T19:30:25.274Z,10.04
2023-04-15T19:35:31.662Z,9.60
2023-04-15T19:40:40.308Z,9.86
2023-04-15T19:45:53.036Z,9.83
2023-04-15T19:51:03.535Z,9.99
2023-04-15T19:56:12.461Z,9.92
2023-04-15T20:01:20.715Z,9.88
2023-04-15T20:06:27.478Z,9.67
2023-04-15T20:12:46.714Z,9.55
2023-04-15T20:17:03.058Z,9.43
2023-04-15T20:22:16.556Z,9.28
2023-04-15T20:27:25.229Z,9.62
2023-04-15T20:32:33.482Z,9.42
2023-04-15T20:37:41.736Z,9.29
2023-04-15T20:42:50.617Z,9.17
2023-04-15T20:48:01.444Z,9.12
2023-04-15T20:53:07.721Z,8.99
2023-04-15T20:58:17.478Z,8.97
2023-04-15T21:03:23.966Z,9.10
2023-04-15T21:08:31.065Z,8.83
2023-04-15T21:13:46.925Z,8.60
2023-04-15T21:18:52.416Z,8.75
2023-04-15T21:23:57.959Z,8.73
2023-04-15T21:29:09.454Z,8.73
2023-04-15T21:34:18.676Z,8.61
2023-04-15T21:39:25.669Z,8.73
2023-04-15T21:44:37.139Z,8.91
2023-04-15T21:49:43.216Z,8.58
2023-04-15T21:54:49.578Z,8.44
2023-04-15T22:00:06.302Z,8.36
2023-04-15T22:05:16.490Z,8.19
2023-04-15T22:10:23.289Z,8.54
2023-04-15T22:15:34.567Z,8.47
2023-04-15T22:20:40.859Z,8.39
2023-04-15T22:25:48.029Z,8.35
2023-04-15T22:30:58.632Z,8.38
2023-04-15T22:36:04.241Z,8.46
2023-04-15T22:41:12.093Z,8.44
2023-04-15T22:46:21.363Z,8.27
2023-04-15T22:51:29.563Z,8.41
2023-04-15T22:56:38.844Z,8.34
2023-04-15T23:01:47.585Z,8.03
2023-04-15T23:06:54.498Z,8.11
2023-04-15T23:12:01.971Z,8.19
2023-04-15T23:17:11.756Z,8.15
2023-04-15T23:22:17.701Z,8.07
2023-04-15T23:27:27.263Z,7.86
2023-04-15T23:32:37.648Z,8.06
2023-04-15T23:37:43.289Z,7.88
2023-04-15T23:42:50.516Z,7.67
2023-04-15T23:48:07.960Z,7.55
2023-04-15T23:53:14.611Z,7.23
2023-04-15T23:58:21.144Z,7.07
